createdAt,value
2018-12-04T00:02:11.219Z,2.10
2018-12-04T00:04:45.478Z,1.60
2018-12-04T00:07:19.805Z,1.43
2018-12-04T00:09:54.159Z,1.90
2018-12-04T00:12:28.483Z,1.40
2018-12-04T00:15:02.823Z,1.50
2018-12-04T00:17:37.034Z,1.50
2018-12-04T00:20:11.353Z,1.33
2018-12-04T00:22:45.744Z,1.50
2018-12-04T00:25:20.231Z,1.30
2018-12-04T00:27:54.453Z,1.30
2018-12-04T00:30:28.672Z,1.40
2018-12-04T00:33:02.893Z,1.57
2018-12-04T00:35:40.005Z,1.30
2018-12-04T00:38:14.398Z,1.50
2018-12-04T00:40:48.731Z,1.30
2018-12-04T00:43:22.925Z,1.13
2018-12-04T00:45:57.208Z,1.30
2018-12-04T00:48:31.475Z,1.70
2018-12-04T00:51:05.990Z,1.20
2018-12-04T00:53:40.221Z,1.50
2018-12-04T00:56:14.496Z,1.40
2018-12-04T00:58:48.697Z,1.60
2018-12-04T01:01:23.017Z,1.90
2018-12-04T01:03:57.211Z,1.50
2018-12-04T01:06:31.549Z,1.40
2018-12-04T01:09:10.158Z,1.40
2018-12-04T01:11:44.402Z,1.50
2018-12-04T01:14:18.616Z,1.20
2018-12-04T01:16:53.021Z,1.40
2018-12-04T01:19:32.908Z,1.30
2018-12-04T01:22:07.395Z,1.50
2018-12-04T01:24:41.733Z,1.33
2018-12-04T01:27:15.934Z,1.30
2018-12-04T01:29:50.247Z,1.33
2018-12-04T01:32:24.458Z,1.30
2018-12-04T01:34:58.810Z,1.30
2018-12-04T01:37:33.091Z,1.20
2018-12-04T01:40:07.509Z,1.30
2018-12-04T01:42:41.741Z,1.40
2018-12-04T01:45:15.911Z,1.47
2018-12-04T01:47:50.139Z,1.20
2018-12-04T01:50:24.530Z,1.30
2018-12-04T01:52:58.759Z,1.47
2018-12-04T01:55:33.126Z,1.60
2018-12-04T01:58:07.503Z,1.27
2018-12-04T02:00:41.734Z,1.33
2018-12-04T02:03:15.933Z,1.40
2018-12-04T02:05:50.173Z,1.37
2018-12-04T02:08:24.374Z,1.40
2018-12-04T02:10:58.566Z,1.40
2018-12-04T02:13:32.896Z,1.50
2018-12-04T02:16:07.253Z,1.30
2018-12-04T02:18:41.458Z,1.40
2018-12-04T02:21:15.929Z,1.33
2018-12-04T02:23:50.295Z,1.50
2018-12-04T02:26:24.514Z,1.60
2018-12-04T02:28:58.825Z,1.50
2018-12-04T02:31:33.224Z,1.47
2018-12-04T02:34:07.500Z,1.50
2018-12-04T02:36:41.895Z,1.50
2018-12-04T02:39:16.082Z,1.67
2018-12-04T02:41:51.785Z,1.63
2018-12-04T02:44:26.108Z,1.60
2018-12-04T02:47:00.380Z,1.73
2018-12-04T02:49:34.635Z,1.70
2018-12-04T02:52:08.965Z,1.60
2018-12-04T02:54:43.304Z,1.43
2018-12-04T02:57:17.569Z,1.43
2018-12-04T02:59:51.903Z,1.40
2018-12-04T03:02:26.107Z,1.83
2018-12-04T03:05:00.456Z,1.67
2018-12-04T03:07:34.828Z,1.60
2018-12-04T03:10:09.274Z,1.70
2018-12-04T03:12:43.934Z,1.83
2018-12-04T03:15:18.353Z,1.87
2018-12-04T03:17:52.614Z,1.50
2018-12-04T03:20:26.840Z,1.40
2018-12-04T03:23:01.051Z,1.70
2018-12-04T03:25:35.286Z,1.60
2018-12-04T03:28:09.548Z,1.37
2018-12-04T03:30:43.807Z,1.50
2018-12-04T03:33:37.730Z,1.57
2018-12-04T03:36:12.160Z,1.50
2018-12-04T03:38:46.348Z,1.60
2018-12-04T03:41:20.567Z,1.43
2018-12-04T03:43:54.825Z,1.60
2018-12-04T03:46:29.148Z,1.60
2018-12-04T03:49:03.587Z,1.60
2018-12-04T03:51:37.862Z,1.63
2018-12-04T03:54:12.048Z,1.77
2018-12-04T03:56:46.288Z,1.60
2018-12-04T03:59:20.663Z,1.60
2018-12-04T04:01:55.243Z,1.50
2018-12-04T04:04:29.452Z,1.57
2018-12-04T04:07:04.623Z,1.50
2018-12-04T04:09:38.940Z,1.57
2018-12-04T04:12:16.858Z,1.60
2018-12-04T04:14:51.100Z,1.77
2018-12-04T04:17:25.424Z,1.43
2018-12-04T04:19:59.644Z,1.60
2018-12-04T04:22:33.836Z,1.50
2018-12-04T04:25:12.129Z,1.67
2018-12-04T04:27:48.063Z,1.40
2018-12-04T04:30:23.458Z,1.40
2018-12-04T04:39:19.712Z,1.80
2018-12-04T04:41:56.543Z,1.50
2018-12-04T04:44:31.242Z,1.60
2018-12-04T04:47:05.495Z,1.77
2018-12-04T04:49:39.852Z,1.60
2018-12-04T04:52:14.059Z,1.50
2018-12-04T04:54:48.279Z,2.00
2018-12-04T04:57:22.633Z,1.83
2018-12-04T04:59:57.013Z,1.70
2018-12-04T05:02:32.368Z,1.80
2018-12-04T05:05:06.874Z,1.90
2018-12-04T05:07:41.100Z,2.40
2018-12-04T05:10:15.327Z,1.80
2018-12-04T05:12:49.726Z,2.30
2018-12-04T05:15:24.173Z,2.50
2018-12-04T05:17:58.382Z,2.10
2018-12-04T05:20:32.782Z,1.80
2018-12-04T05:23:06.984Z,2.00
2018-12-04T05:25:41.307Z,2.40
2018-12-04T05:28:15.544Z,1.93
2018-12-04T05:30:50.804Z,1.70
2018-12-04T05:33:25.207Z,2.00
2018-12-04T05:35:59.595Z,2.90
2018-12-04T05:38:33.809Z,2.77
2018-12-04T05:41:08.145Z,2.10
2018-12-04T05:43:42.415Z,2.00
2018-12-04T05:46:16.760Z,2.20
2018-12-04T05:48:51.979Z,2.70
2018-12-04T05:51:26.301Z,2.30
2018-12-04T05:54:00.754Z,2.90
2018-12-04T05:56:35.050Z,2.63
2018-12-04T05:59:09.454Z,2.50
2018-12-04T06:01:43.640Z,2.60
2018-12-04T06:04:17.869Z,3.10
2018-12-04T06:06:52.157Z,3.10
2018-12-04T06:09:26.465Z,2.90
2018-12-04T06:12:00.779Z,2.70
2018-12-04T06:14:35.069Z,2.43
2018-12-04T06:17:26.759Z,2.37
2018-12-04T06:20:00.973Z,3.70
2018-12-04T06:22:35.296Z,3.60
2018-12-04T06:25:09.749Z,3.30
2018-12-04T06:27:44.182Z,6.33
2018-12-04T06:30:18.587Z,5.37
2018-12-04T06:32:52.790Z,5.80
2018-12-04T06:35:27.154Z,2.70
2018-12-04T06:38:01.487Z,2.80
2018-12-04T06:40:35.687Z,2.60
2018-12-04T06:43:10.018Z,2.70
2018-12-04T06:45:44.345Z,2.63
2018-12-04T06:48:18.718Z,3.13
2018-12-04T06:50:52.922Z,2.63
2018-12-04T06:53:27.114Z,3.13
2018-12-04T06:56:01.550Z,1.80
2018-12-04T06:58:36.012Z,2.07
2018-12-04T07:01:10.251Z,1.77
2018-12-04T07:03:44.452Z,1.90
2018-12-04T07:06:18.766Z,2.37
2018-12-04T07:08:53.126Z,1.70
2018-12-04T07:11:27.492Z,1.90
2018-12-04T07:14:01.695Z,1.40
2018-12-04T07:16:35.967Z,1.93
2018-12-04T07:19:13.371Z,1.80
2018-12-04T07:21:50.278Z,1.80
2018-12-04T07:24:30.676Z,1.50
2018-12-04T07:29:54.212Z,2.00
2018-12-04T07:32:28.574Z,1.80
2018-12-04T07:35:03.053Z,1.63
2018-12-04T07:37:37.296Z,2.10
2018-12-04T07:40:11.596Z,1.80
2018-12-04T07:42:45.836Z,2.00
2018-12-04T07:45:20.080Z,2.20
2018-12-04T07:47:54.334Z,2.30
2018-12-04T07:50:28.702Z,2.00
2018-12-04T07:53:02.990Z,2.20
2018-12-04T07:55:37.397Z,2.10
2018-12-04T07:58:11.595Z,2.10
2018-12-04T08:00:45.872Z,2.00
2018-12-04T08:03:20.094Z,2.20
2018-12-04T08:05:54.432Z,2.20
2018-12-04T08:08:29.702Z,2.13
2018-12-04T08:11:04.069Z,2.20
2018-12-04T08:13:38.368Z,1.93
2018-12-04T08:16:12.551Z,2.17
2018-12-04T08:18:46.904Z,1.83
2018-12-04T08:21:21.432Z,1.90
2018-12-04T08:23:55.747Z,1.97
2018-12-04T08:26:30.209Z,1.90
2018-12-04T08:29:04.701Z,2.10
2018-12-04T08:31:39.089Z,2.27
2018-12-04T08:34:13.463Z,2.77
2018-12-04T08:36:47.787Z,2.40
2018-12-04T08:39:22.166Z,2.27
2018-12-04T08:41:56.463Z,2.63
2018-12-04T08:44:31.873Z,2.07
2018-12-04T08:47:06.165Z,4.43
2018-12-04T08:52:15.158Z,7.57
2018-12-04T08:54:49.535Z,2.20
2018-12-04T08:57:23.878Z,2.00
2018-12-04T08:59:58.256Z,2.50
2018-12-04T09:02:32.641Z,2.03
2018-12-04T09:05:07.862Z,2.20
2018-12-04T09:07:42.357Z,2.70
2018-12-04T09:10:16.680Z,2.10
2018-12-04T09:12:51.916Z,2.87
2018-12-04T09:15:26.350Z,2.07
2018-12-04T09:18:00.524Z,1.90
2018-12-04T09:20:34.995Z,2.90
2018-12-04T09:23:09.583Z,2.20
2018-12-04T09:25:44.195Z,2.10
2018-12-04T09:28:18.572Z,1.97
2018-12-04T09:30:52.847Z,1.60
2018-12-04T09:33:27.329Z,1.80
2018-12-04T09:36:01.664Z,2.10
2018-12-04T09:38:36.062Z,2.10
2018-12-04T09:41:10.525Z,1.80
2018-12-04T09:43:44.735Z,1.80
2018-12-04T09:46:19.237Z,2.20
2018-12-04T09:48:53.591Z,1.90
2018-12-04T09:51:27.883Z,2.23
2018-12-04T09:54:02.230Z,2.00
2018-12-04T09:56:36.522Z,2.00
2018-12-04T09:59:10.841Z,2.00
2018-12-04T10:01:45.211Z,2.10
2018-12-04T10:04:20.363Z,2.00
2018-12-04T10:06:54.614Z,1.90
2018-12-04T10:09:28.949Z,1.83
2018-12-04T10:12:03.354Z,1.90
2018-12-04T10:14:37.625Z,1.93
2018-12-04T10:17:11.844Z,2.30
2018-12-04T10:19:46.125Z,2.03
2018-12-04T10:22:20.441Z,2.10
2018-12-04T10:24:54.798Z,2.47
2018-12-04T10:27:29.125Z,2.20
2018-12-04T10:30:03.967Z,2.27
2018-12-04T10:32:38.385Z,2.20
2018-12-04T10:35:12.638Z,2.10
2018-12-04T10:37:46.945Z,2.30
2018-12-04T10:40:21.336Z,2.00
2018-12-04T10:42:55.721Z,2.47
2018-12-04T10:45:29.953Z,2.33
2018-12-04T10:48:04.186Z,2.30
2018-12-04T10:50:38.542Z,2.33
2018-12-04T10:53:12.882Z,2.60
2018-12-04T10:55:47.107Z,2.67
2018-12-04T10:58:21.421Z,2.37
2018-12-04T11:00:55.950Z,2.20
2018-12-04T11:03:35.680Z,2.27
2018-12-04T11:06:09.913Z,2.10
2018-12-04T11:08:44.225Z,2.53
2018-12-04T11:11:18.520Z,2.20
2018-12-04T11:13:52.803Z,2.63
2018-12-04T11:16:27.276Z,2.30
2018-12-04T11:19:01.757Z,2.47
2018-12-04T11:21:35.973Z,4.20
2018-12-04T11:24:10.407Z,4.50
2018-12-04T11:26:44.709Z,4.00
2018-12-04T11:29:19.090Z,2.80
2018-12-04T11:31:53.712Z,3.97
2018-12-04T11:34:28.161Z,5.30
2018-12-04T11:37:02.389Z,5.07
2018-12-04T11:39:36.860Z,7.90
2018-12-04T11:42:11.181Z,8.70
2018-12-04T11:44:45.387Z,5.77
2018-12-04T11:47:20.687Z,7.37
2018-12-04T11:49:54.918Z,5.57
2018-12-04T11:52:29.401Z,5.57
2018-12-04T11:55:04.056Z,4.17
2018-12-04T11:57:38.450Z,3.93
2018-12-04T12:00:44.696Z,3.27
2018-12-04T12:03:19.075Z,3.50
2018-12-04T12:05:53.366Z,4.10
2018-12-04T12:08:27.574Z,4.10
2018-12-04T12:11:02.105Z,3.93
2018-12-04T12:13:36.445Z,4.07
2018-12-04T12:16:10.826Z,3.07
2018-12-04T12:18:45.164Z,3.60
2018-12-04T12:21:19.625Z,3.80
2018-12-04T12:23:53.890Z,3.63
2018-12-04T12:26:28.352Z,4.00
2018-12-04T12:29:02.890Z,4.40
2018-12-04T12:31:37.152Z,4.10
2018-12-04T12:34:11.384Z,3.93
2018-12-04T12:36:45.784Z,3.50
2018-12-04T12:39:20.061Z,4.27
2018-12-04T12:41:54.277Z,5.30
2018-12-04T12:44:28.635Z,5.47
2018-12-04T12:47:03.005Z,4.67
2018-12-04T12:49:37.523Z,5.33
2018-12-04T12:52:11.880Z,5.17
2018-12-04T12:54:46.233Z,3.03
2018-12-04T12:57:20.554Z,2.87
2018-12-04T12:59:54.824Z,2.60
2018-12-04T13:02:30.488Z,2.53
2018-12-04T13:05:04.989Z,2.40
2018-12-04T13:07:39.249Z,1.80
2018-12-04T13:10:13.542Z,1.90
2018-12-04T13:12:47.822Z,1.83
2018-12-04T13:15:22.045Z,2.47
2018-12-04T13:17:56.280Z,2.87
2018-12-04T13:20:30.502Z,2.40
2018-12-04T13:23:04.955Z,2.50
2018-12-04T13:25:39.330Z,2.80
2018-12-04T13:28:13.606Z,2.60
2018-12-04T13:30:47.993Z,2.80
2018-12-04T13:33:22.688Z,2.77
2018-12-04T13:35:56.960Z,4.20
2018-12-04T13:38:31.325Z,3.60
2018-12-04T13:41:05.823Z,3.97
2018-12-04T13:43:40.011Z,5.33
2018-12-04T13:46:14.372Z,5.00
2018-12-04T13:48:48.638Z,4.50
2018-12-04T13:51:23.284Z,4.77
2018-12-04T13:53:57.750Z,4.77
2018-12-04T13:56:32.192Z,4.80
2018-12-04T13:59:06.508Z,4.87
2018-12-04T14:01:40.810Z,6.80
2018-12-04T14:04:17.124Z,5.60
2018-12-04T14:06:51.508Z,5.80
2018-12-04T14:09:26.243Z,5.97
2018-12-04T14:12:00.707Z,5.63
2018-12-04T14:14:35.230Z,5.37
2018-12-04T14:17:09.870Z,4.90
2018-12-04T14:19:44.292Z,4.80
2018-12-04T14:22:18.659Z,4.80
2018-12-04T14:24:52.897Z,5.43
2018-12-04T14:27:27.194Z,4.70
2018-12-04T14:30:01.478Z,5.50
2018-12-04T14:32:36.000Z,6.27
2018-12-04T14:35:10.396Z,6.30
2018-12-04T14:37:44.761Z,5.60
2018-12-04T14:40:19.117Z,6.30
2018-12-04T14:42:54.774Z,6.17
2018-12-04T14:45:29.102Z,6.20
2018-12-04T14:48:03.465Z,8.20
2018-12-04T14:50:37.885Z,7.70
2018-12-04T14:53:12.160Z,8.53
2018-12-04T14:55:46.412Z,8.47
2018-12-04T14:58:20.707Z,5.87
2018-12-04T15:00:55.278Z,6.60
2018-12-04T15:03:29.599Z,6.50
2018-12-04T15:06:04.064Z,5.73
2018-12-04T15:08:38.410Z,5.60
2018-12-04T15:11:12.796Z,4.60
2018-12-04T15:13:47.186Z,5.73
2018-12-04T15:16:21.414Z,4.37
2018-12-04T15:18:55.817Z,5.40
2018-12-04T15:21:30.055Z,5.17
2018-12-04T15:24:04.458Z,5.67
2018-12-04T15:26:42.362Z,6.00
2018-12-04T15:29:16.809Z,5.80
2018-12-04T15:31:51.393Z,6.03
2018-12-04T15:34:25.718Z,7.97
2018-12-04T15:37:00.048Z,8.50
2018-12-04T15:39:34.461Z,7.30
2018-12-04T15:42:08.804Z,6.67
2018-12-04T15:44:42.974Z,6.90
2018-12-04T15:47:17.194Z,5.20
2018-12-04T15:49:51.588Z,5.50
2018-12-04T15:52:25.937Z,6.00
2018-12-04T15:55:00.371Z,6.00
2018-12-04T15:57:34.629Z,10.00
2018-12-04T16:00:09.855Z,6.30
2018-12-04T16:02:44.228Z,4.90
2018-12-04T16:05:18.436Z,5.43
2018-12-04T16:07:52.685Z,5.97
2018-12-04T16:10:26.945Z,6.47
2018-12-04T16:13:01.447Z,7.10
2018-12-04T16:15:35.654Z,6.40
2018-12-04T16:18:11.011Z,6.97
2018-12-04T16:20:45.350Z,7.13
2018-12-04T16:23:19.687Z,7.37
2018-12-04T16:25:54.028Z,6.97
2018-12-04T16:28:28.357Z,8.27
2018-12-04T16:31:02.752Z,8.67
2018-12-04T16:33:37.069Z,8.03
2018-12-04T16:36:11.351Z,8.13
2018-12-04T16:38:45.669Z,9.20
2018-12-04T16:41:19.976Z,10.60
2018-12-04T16:43:54.240Z,10.73
2018-12-04T16:46:28.565Z,9.97
2018-12-04T16:49:02.991Z,10.57
2018-12-04T16:51:37.297Z,10.17
2018-12-04T16:54:11.530Z,9.70
2018-12-04T16:56:45.742Z,9.53
2018-12-04T16:59:20.047Z,10.47
2018-12-04T17:01:54.380Z,9.97
2018-12-04T17:04:28.784Z,8.77
2018-12-04T17:07:03.004Z,9.77
2018-12-04T17:09:37.534Z,9.30
2018-12-04T17:12:11.768Z,9.00
2018-12-04T17:14:46.106Z,9.17
2018-12-04T17:17:20.356Z,9.17
2018-12-04T17:19:59.011Z,7.43
2018-12-04T17:22:33.426Z,7.43
2018-12-04T17:25:07.848Z,6.53
2018-12-04T17:27:42.077Z,6.50
2018-12-04T17:30:16.784Z,6.20
2018-12-04T17:32:51.206Z,7.63
2018-12-04T17:35:25.714Z,11.07
2018-12-04T17:38:00.028Z,13.37
2018-12-04T17:40:34.270Z,20.17
2018-12-04T17:43:08.670Z,23.53
2018-12-04T17:45:43.178Z,10.87
2018-12-04T17:48:17.693Z,10.40
2018-12-04T17:50:51.884Z,10.80
2018-12-04T17:53:26.206Z,9.93
2018-12-04T17:56:00.524Z,16.10
2018-12-04T17:58:34.759Z,13.70
2018-12-04T18:01:09.584Z,14.77
2018-12-04T18:03:43.998Z,13.80
2018-12-04T18:06:18.379Z,10.67
2018-12-04T18:08:52.614Z,9.50
2018-12-04T18:11:26.857Z,8.00
2018-12-04T18:14:01.264Z,26.80
2018-12-04T18:16:35.474Z,21.70
2018-12-04T18:19:09.871Z,16.33
2018-12-04T18:21:44.169Z,10.33
2018-12-04T18:24:18.505Z,9.40
2018-12-04T18:26:52.808Z,8.20
2018-12-04T18:29:27.038Z,8.77
2018-12-04T18:32:02.272Z,8.70
2018-12-04T18:34:36.570Z,9.07
2018-12-04T18:37:10.978Z,9.97
2018-12-04T18:39:45.363Z,9.70
2018-12-04T18:42:19.708Z,11.67
2018-12-04T18:44:54.047Z,11.70
2018-12-04T18:47:29.520Z,10.77
2018-12-04T18:50:05.322Z,10.70
2018-12-04T18:52:40.488Z,9.67
2018-12-04T18:55:22.169Z,9.87
2018-12-04T18:57:56.540Z,9.67
2018-12-04T19:00:30.912Z,9.80
2018-12-04T19:03:05.238Z,11.23
2018-12-04T19:05:39.658Z,10.53
2018-12-04T19:08:13.978Z,8.90
2018-12-04T19:10:48.338Z,8.80
2018-12-04T19:13:22.679Z,8.40
2018-12-04T19:15:57.876Z,8.60
2018-12-04T19:18:32.245Z,9.60
2018-12-04T19:21:06.713Z,10.40
2018-12-04T19:23:41.003Z,9.03
2018-12-04T19:26:15.500Z,9.13
2018-12-04T19:28:52.697Z,8.90
2018-12-04T19:31:27.266Z,9.03
2018-12-04T19:34:01.767Z,9.27
2018-12-04T19:36:36.182Z,10.83
2018-12-04T19:39:10.537Z,8.77
2018-12-04T19:41:45.147Z,8.80
2018-12-04T19:44:19.546Z,8.73
2018-12-04T19:46:53.952Z,9.23
2018-12-04T19:49:28.338Z,8.57
2018-12-04T19:52:02.695Z,8.47
2018-12-04T19:54:36.948Z,9.00
2018-12-04T19:57:12.429Z,9.00
2018-12-04T19:59:46.784Z,8.37
2018-12-04T20:02:21.022Z,9.30
2018-12-04T20:04:55.535Z,9.13
2018-12-04T20:07:29.960Z,9.77
2018-12-04T20:10:04.503Z,9.40
2018-12-04T20:12:38.900Z,9.27
2018-12-04T20:15:13.306Z,10.07
2018-12-04T20:17:47.587Z,9.33
2018-12-04T20:20:21.805Z,10.70
2018-12-04T20:22:56.287Z,13.33
2018-12-04T20:25:30.587Z,13.23
2018-12-04T20:28:05.172Z,12.83
2018-12-04T20:30:39.678Z,12.70
2018-12-04T20:33:14.007Z,12.13
2018-12-04T20:35:48.247Z,11.63
2018-12-04T20:38:22.695Z,11.07
2018-12-04T20:40:57.120Z,10.87
2018-12-04T20:43:31.418Z,10.13
2018-12-04T20:46:06.295Z,11.23
2018-12-04T20:48:40.936Z,17.90
2018-12-04T20:51:15.409Z,15.67
2018-12-04T20:53:49.913Z,13.20
2018-12-04T20:56:24.395Z,12.23
2018-12-04T20:58:59.111Z,13.10
2018-12-04T21:01:33.700Z,12.37
2018-12-04T21:04:08.226Z,12.23
2018-12-04T21:06:42.745Z,13.53
2018-12-04T21:09:17.131Z,13.00
2018-12-04T21:11:51.539Z,12.73
2018-12-04T21:14:26.852Z,12.20
2018-12-04T21:17:01.205Z,12.77
2018-12-04T21:19:35.559Z,11.80
2018-12-04T21:22:09.951Z,11.60
2018-12-04T21:24:45.181Z,12.30
2018-12-04T21:27:25.292Z,12.33
2018-12-04T21:30:04.953Z,24.47
2018-12-04T21:32:44.618Z,14.20
2018-12-04T21:35:24.301Z,13.87
2018-12-04T21:38:04.004Z,12.43
2018-12-04T21:40:43.553Z,11.33
2018-12-04T21:43:23.863Z,11.23
2018-12-04T21:46:03.748Z,12.10
2018-12-04T21:48:38.082Z,12.07
2018-12-04T21:51:12.417Z,11.90
2018-12-04T21:53:46.718Z,12.77
2018-12-04T21:56:20.937Z,11.93
2018-12-04T21:58:55.291Z,12.73
2018-12-04T22:01:29.597Z,12.60
2018-12-04T22:04:04.039Z,12.23
2018-12-04T22:06:38.638Z,12.87
2018-12-04T22:09:12.974Z,12.70
2018-12-04T22:11:47.260Z,12.90
2018-12-04T22:14:21.451Z,13.50
2018-12-04T22:16:55.688Z,13.07
2018-12-04T22:19:30.065Z,13.60
2018-12-04T22:22:04.522Z,13.60
2018-12-04T22:24:38.786Z,14.77
2018-12-04T22:27:13.100Z,16.00
2018-12-04T22:29:47.341Z,14.83
2018-12-04T22:32:21.821Z,16.27
2018-12-04T22:34:56.016Z,14.40
2018-12-04T22:37:31.205Z,14.87
2018-12-04T22:40:05.761Z,14.50
2018-12-04T22:42:40.018Z,14.60
2018-12-04T22:45:19.678Z,14.90
2018-12-04T22:47:54.929Z,15.77
2018-12-04T22:50:29.271Z,15.50
2018-12-04T22:53:03.580Z,15.37
2018-12-04T22:55:37.908Z,14.67
2018-12-04T22:58:12.121Z,14.97
2018-12-04T23:00:47.714Z,15.53
2018-12-04T23:03:22.163Z,15.23
2018-12-04T23:05:56.520Z,14.03
2018-12-04T23:08:30.746Z,15.97
2018-12-04T23:11:06.021Z,14.47
2018-12-04T23:13:40.458Z,13.93
2018-12-04T23:16:14.758Z,14.87
2018-12-04T23:18:49.122Z,14.83
2018-12-04T23:21:23.425Z,14.30
2018-12-04T23:23:57.942Z,15.07
2018-12-04T23:26:32.312Z,17.57
2018-12-04T23:29:06.703Z,16.23
2018-12-04T23:31:40.912Z,16.03
2018-12-04T23:34:15.131Z,15.47
2018-12-04T23:36:49.321Z,16.03
2018-12-04T23:39:23.556Z,15.00
2018-12-04T23:41:58.005Z,14.90
2018-12-04T23:44:32.194Z,15.70
2018-12-04T23:47:06.507Z,18.40
2018-12-04T23:49:40.723Z,23.93
2018-12-04T23:52:15.026Z,19.40
2018-12-04T23:54:49.327Z,20.07
2018-12-04T23:57:23.641Z,20.00
2018-12-04T23:59:58.162Z,21.03
